BAW248 SBGL-EGLL
Flight info
| Callsign | BAW248 |
|---|---|
| Flight time | N/A |
| Altitude | 35000 |
| Route | UTMIP1A IMBAP UZ1 ESNIN UN866 NIGTU/N0482F370 UN866 DEKON/N0479F380 UN866 AMDOL/N0475F390 UN866 TENPA N866 GOMER/N0471F400 N981 BIMBO/N0399F240 UN729 AGADO/N0477F400 DCT KORUL DCT FEJAC DCT JSY/N0451F340 DCT REVTU UP87 ROXOG ROXOG1H |
| Aircraft | B772/H-SDE1E3FGHIJ3J4J5J6M1M2P2RWXYZ/LB1D1 |
Departure
| Time | 2026-04-28 22:59 |
|---|---|
| Airport | Rio Galeão – Tom Jobim International Airport (SBGL) |
Arrival
| Time | N/A |
|---|---|
| Airport | London Heathrow Airport (EGLL) |
| Time | Latitude | Longitude | Altitude | Speed | Heading |
|---|---|---|---|---|---|
| 2026-04-28 22:17 | -22.81609 | -43.24508 | 43 ft | 0 kts | 345° |
| 2026-04-28 22:43 | -22.81613 | -43.24507 | 43 ft | 3 kts | 344° |
| 2026-04-28 22:43 | -22.81639 | -43.24498 | 41 ft | 4 kts | 335° |
| 2026-04-28 22:43 | -22.81661 | -43.24484 | 40 ft | 4 kts | 319° |
| 2026-04-28 22:43 | -22.81678 | -43.24464 | 41 ft | 3 kts | 297° |
| 2026-04-28 22:44 | -22.81685 | -43.24444 | 40 ft | 4 kts | 265° |
| 2026-04-28 22:44 | -22.81678 | -43.24420 | 39 ft | 4 kts | 243° |
| 2026-04-28 22:44 | -22.81674 | -43.24412 | 40 ft | 0 kts | 244° |
| 2026-04-28 22:49 | -22.81678 | -43.24420 | 39 ft | 0 kts | 244° |
| 2026-04-28 22:49 | -22.81679 | -43.24423 | 39 ft | 3 kts | 244° |
| 2026-04-28 22:50 | -22.81710 | -43.24471 | 40 ft | 12 kts | 225° |
| 2026-04-28 22:50 | -22.81757 | -43.24540 | 43 ft | 12 kts | 260° |
| 2026-04-28 22:50 | -22.81726 | -43.24619 | 43 ft | 12 kts | 305° |
| 2026-04-28 22:50 | -22.81679 | -43.24692 | 43 ft | 12 kts | 303° |
| 2026-04-28 22:51 | -22.81635 | -43.24765 | 43 ft | 12 kts | 303° |
| 2026-04-28 22:51 | -22.81589 | -43.24838 | 43 ft | 12 kts | 304° |
| 2026-04-28 22:51 | -22.81543 | -43.24911 | 43 ft | 12 kts | 304° |
| 2026-04-28 22:51 | -22.81499 | -43.24982 | 43 ft | 10 kts | 304° |
| 2026-04-28 22:52 | -22.81498 | -43.25049 | 43 ft | 10 kts | 230° |
| 2026-04-28 22:52 | -22.81552 | -43.25092 | 43 ft | 10 kts | 216° |
| 2026-04-28 22:52 | -22.81602 | -43.25140 | 43 ft | 10 kts | 240° |
| 2026-04-28 22:52 | -22.81588 | -43.25219 | 41 ft | 13 kts | 302° |
| 2026-04-28 22:53 | -22.81531 | -43.25306 | 43 ft | 15 kts | 305° |
| 2026-04-28 22:53 | -22.81472 | -43.25397 | 43 ft | 15 kts | 305° |
| 2026-04-28 22:53 | -22.81412 | -43.25489 | 41 ft | 15 kts | 306° |
| 2026-04-28 22:53 | -22.81351 | -43.25579 | 41 ft | 15 kts | 306° |
| 2026-04-28 22:54 | -22.81290 | -43.25669 | 43 ft | 15 kts | 305° |
| 2026-04-28 22:54 | -22.81231 | -43.25761 | 43 ft | 15 kts | 305° |
| 2026-04-28 22:54 | -22.81174 | -43.25834 | 42 ft | 11 kts | 337° |
| 2026-04-28 22:54 | -22.81106 | -43.25804 | 43 ft | 11 kts | 36° |
| 2026-04-28 22:55 | -22.81038 | -43.25751 | 43 ft | 14 kts | 36° |
| 2026-04-28 22:55 | -22.80949 | -43.25683 | 43 ft | 16 kts | 35° |
| 2026-04-28 22:55 | -22.80861 | -43.25614 | 43 ft | 16 kts | 35° |
| 2026-04-28 22:55 | -22.80771 | -43.25545 | 43 ft | 16 kts | 36° |
| 2026-04-28 22:56 | -22.80684 | -43.25477 | 43 ft | 10 kts | 36° |
| 2026-04-28 22:56 | -22.80626 | -43.25447 | 43 ft | 9 kts | 4° |
| 2026-04-28 22:56 | -22.80571 | -43.25481 | 43 ft | 9 kts | 311° |
| 2026-04-28 22:56 | -22.80529 | -43.25534 | 43 ft | 9 kts | 322° |
| 2026-04-28 22:57 | -22.80474 | -43.25572 | 43 ft | 9 kts | 328° |
| 2026-04-28 22:57 | -22.80418 | -43.25610 | 42 ft | 10 kts | 334° |
| 2026-04-28 22:57 | -22.80348 | -43.25596 | 42 ft | 11 kts | 33° |
| 2026-04-28 22:57 | -22.80290 | -43.25547 | 39 ft | 11 kts | 38° |
| 2026-04-28 22:58 | -22.80231 | -43.25498 | 36 ft | 11 kts | 38° |
| 2026-04-28 22:58 | -22.80174 | -43.25447 | 35 ft | 11 kts | 50° |
| 2026-04-28 22:58 | -22.80153 | -43.25395 | 35 ft | 2 kts | 73° |
| 2026-04-28 22:58 | -22.80125 | -43.25290 | 35 ft | 33 kts | 74° |
| 2026-04-28 22:59 | -22.80007 | -43.24829 | 36 ft | 93 kts | 74° |
| 2026-04-28 22:59 | -22.79781 | -43.23957 | 35 ft | 147 kts | 73° |
| 2026-04-28 22:59 | -22.79464 | -43.22736 | 145 ft | 180 kts | 76° |
| 2026-04-28 22:59 | -22.79140 | -43.21428 | 671 ft | 182 kts | 77° |
| 2026-04-28 23:00 | -22.78830 | -43.20089 | 1284 ft | 184 kts | 77° |
| 2026-04-28 23:00 | -22.78545 | -43.18768 | 1989 ft | 179 kts | 77° |
| 2026-04-28 23:00 | -22.78255 | -43.17385 | 2157 ft | 196 kts | 77° |
| 2026-04-28 23:00 | -22.77943 | -43.15876 | 2278 ft | 215 kts | 77° |
| 2026-04-28 23:01 | -22.77603 | -43.14246 | 2422 ft | 233 kts | 77° |
| 2026-04-28 23:01 | -22.77231 | -43.12465 | 2673 ft | 250 kts | 77° |
| 2026-04-28 23:01 | -22.76839 | -43.10599 | 3090 ft | 259 kts | 77° |
| 2026-04-28 23:01 | -22.76434 | -43.08679 | 3617 ft | 263 kts | 77° |
| 2026-04-28 23:02 | -22.76023 | -43.06736 | 4158 ft | 267 kts | 76° |
| 2026-04-28 23:02 | -22.75606 | -43.04767 | 4715 ft | 269 kts | 76° |
| 2026-04-28 23:02 | -22.75183 | -43.02777 | 5237 ft | 271 kts | 75° |
| 2026-04-28 23:02 | -22.74390 | -43.00940 | 5572 ft | 275 kts | 47° |
| 2026-04-28 23:03 | -22.72824 | -42.99787 | 6067 ft | 276 kts | 18° |
| 2026-04-28 23:03 | -22.70935 | -42.99564 | 6578 ft | 276 kts | 352° |
| 2026-04-28 23:03 | -22.69127 | -43.00222 | 7024 ft | 275 kts | 330° |
| 2026-04-28 23:03 | -22.67395 | -43.01104 | 7236 ft | 280 kts | 350° |
| 2026-04-28 23:04 | -22.65458 | -43.00962 | 7606 ft | 281 kts | 15° |
| 2026-04-28 23:04 | -22.61664 | -42.99729 | 8517 ft | 287 kts | 15° |
| 2026-04-28 23:04 | -22.59734 | -42.99160 | 9016 ft | 289 kts | 14° |
| 2026-04-28 23:05 | -22.57777 | -42.98615 | 9486 ft | 291 kts | 13° |
| 2026-04-28 23:05 | -22.55800 | -42.98089 | 9953 ft | 294 kts | 13° |
| 2026-04-28 23:05 | -22.53799 | -42.97572 | 10310 ft | 301 kts | 12° |
| 2026-04-28 23:05 | -22.51704 | -42.97040 | 10429 ft | 318 kts | 12° |
| 2026-04-28 23:06 | -22.49483 | -42.96484 | 10556 ft | 336 kts | 12° |
| 2026-04-28 23:06 | -22.47150 | -42.95903 | 10696 ft | 353 kts | 12° |
| 2026-04-28 23:06 | -22.44712 | -42.95298 | 11069 ft | 364 kts | 12° |
| 2026-04-28 23:06 | -22.42222 | -42.94681 | 11601 ft | 370 kts | 12° |
| 2026-04-28 23:07 | -22.39700 | -42.94056 | 12253 ft | 374 kts | 12° |
| 2026-04-28 23:07 | -22.37151 | -42.93425 | 12941 ft | 378 kts | 12° |
| 2026-04-28 23:07 | -22.34572 | -42.92789 | 13621 ft | 382 kts | 12° |
| 2026-04-28 23:07 | -22.31958 | -42.92288 | 14127 ft | 383 kts | 1° |
| 2026-04-28 23:08 | -22.29318 | -42.92590 | 14504 ft | 385 kts | 348° |
| 2026-04-28 23:08 | -22.26665 | -42.93132 | 15086 ft | 389 kts | 349° |
| 2026-04-28 23:08 | -22.24004 | -42.93622 | 15877 ft | 388 kts | 349° |
| 2026-04-28 23:08 | -22.21344 | -42.94071 | 16664 ft | 388 kts | 350° |
| 2026-04-28 23:09 | -22.18669 | -42.94502 | 17298 ft | 389 kts | 352° |
| 2026-04-28 23:09 | -22.15949 | -42.94390 | 17733 ft | 399 kts | 10° |
| 2026-04-28 23:09 | -22.13328 | -42.93326 | 18352 ft | 407 kts | 27° |
| 2026-04-28 23:09 | -22.10926 | -42.91694 | 18878 ft | 410 kts | 30° |
| 2026-04-28 23:10 | -22.08524 | -42.89994 | 19355 ft | 416 kts | 30° |
| 2026-04-28 23:10 | -22.06104 | -42.88270 | 19921 ft | 419 kts | 30° |
| 2026-04-28 23:10 | -22.03692 | -42.86560 | 20492 ft | 422 kts | 30° |
| 2026-04-28 23:10 | -22.01225 | -42.84825 | 21052 ft | 425 kts | 30° |
| 2026-04-28 23:11 | -21.98695 | -42.83059 | 21593 ft | 429 kts | 29° |
| 2026-04-28 23:11 | -21.96203 | -42.81327 | 22137 ft | 434 kts | 29° |
| 2026-04-28 23:11 | -21.93661 | -42.79565 | 22701 ft | 437 kts | 29° |
| 2026-04-28 23:11 | -21.91090 | -42.77786 | 23255 ft | 440 kts | 29° |
| 2026-04-28 23:12 | -21.88504 | -42.75999 | 23753 ft | 444 kts | 28° |
| 2026-04-28 23:12 | -21.85900 | -42.74199 | 24174 ft | 447 kts | 28° |
| 2026-04-28 23:12 | -21.83275 | -42.72384 | 24578 ft | 450 kts | 28° |
| 2026-04-28 23:12 | -21.80627 | -42.70555 | 24984 ft | 453 kts | 28° |
| 2026-04-28 23:13 | -21.77965 | -42.68717 | 25382 ft | 456 kts | 28° |
| 2026-04-28 23:13 | -21.75286 | -42.66868 | 25775 ft | 459 kts | 28° |
| 2026-04-28 23:13 | -21.72592 | -42.65009 | 26162 ft | 461 kts | 28° |
| 2026-04-28 23:13 | -21.69883 | -42.63138 | 26569 ft | 463 kts | 28° |
| 2026-04-28 23:14 | -21.67162 | -42.61262 | 26951 ft | 466 kts | 28° |
| 2026-04-28 23:14 | -21.64419 | -42.59384 | 27286 ft | 468 kts | 27° |
| 2026-04-28 23:14 | -21.61493 | -42.57908 | 27558 ft | 462 kts | 12° |
| 2026-04-28 23:14 | -21.58374 | -42.57112 | 27811 ft | 462 kts | 8° |
| 2026-04-28 23:15 | -21.55211 | -42.56406 | 28109 ft | 465 kts | 8° |
| 2026-04-28 23:15 | -21.52029 | -42.55702 | 28456 ft | 468 kts | 8° |
| 2026-04-28 23:15 | -21.48843 | -42.54979 | 28817 ft | 469 kts | 8° |
| 2026-04-28 23:15 | -21.45643 | -42.54226 | 29169 ft | 471 kts | 9° |
| 2026-04-28 23:16 | -21.42431 | -42.53453 | 29471 ft | 474 kts | 9° |
| 2026-04-28 23:16 | -21.39210 | -42.52666 | 29709 ft | 477 kts | 9° |
| 2026-04-28 23:16 | -21.35963 | -42.51865 | 29974 ft | 480 kts | 9° |
| 2026-04-28 23:16 | -21.32708 | -42.51059 | 30228 ft | 481 kts | 9° |
| 2026-04-28 23:17 | -21.29437 | -42.50250 | 30449 ft | 483 kts | 9° |
| 2026-04-28 23:17 | -21.26196 | -42.49450 | 30639 ft | 486 kts | 9° |
| 2026-04-28 23:17 | -21.22898 | -42.48636 | 30841 ft | 487 kts | 9° |
| 2026-04-28 23:17 | -21.19587 | -42.47821 | 31056 ft | 488 kts | 9° |
| 2026-04-28 23:18 | -21.16273 | -42.47005 | 31251 ft | 490 kts | 9° |
| 2026-04-28 23:18 | -21.12942 | -42.46186 | 31401 ft | 492 kts | 9° |
| 2026-04-28 23:18 | -21.09601 | -42.45365 | 31585 ft | 493 kts | 9° |
| 2026-04-28 23:18 | -21.06260 | -42.44545 | 31781 ft | 493 kts | 9° |
| 2026-04-28 23:19 | -21.02913 | -42.43724 | 32006 ft | 493 kts | 9° |
| 2026-04-28 23:19 | -20.99571 | -42.42903 | 32212 ft | 494 kts | 9° |
| 2026-04-28 23:19 | -20.96219 | -42.42080 | 32448 ft | 493 kts | 9° |
| 2026-04-28 23:19 | -20.92878 | -42.41260 | 32685 ft | 493 kts | 9° |
| 2026-04-28 23:20 | -20.89534 | -42.40442 | 32877 ft | 494 kts | 9° |
| 2026-04-28 23:20 | -20.86182 | -42.39621 | 33098 ft | 494 kts | 9° |
| 2026-04-28 23:20 | -20.82833 | -42.38801 | 33320 ft | 494 kts | 9° |
| 2026-04-28 23:20 | -20.79489 | -42.37981 | 33521 ft | 494 kts | 9° |
| 2026-04-28 23:21 | -20.76144 | -42.37164 | 33747 ft | 493 kts | 9° |
| 2026-04-28 23:21 | -20.72793 | -42.36345 | 33947 ft | 493 kts | 9° |
| 2026-04-28 23:21 | -20.69448 | -42.35528 | 34147 ft | 493 kts | 9° |
| 2026-04-28 23:21 | -20.66100 | -42.34710 | 34334 ft | 493 kts | 9° |
| 2026-04-28 23:22 | -20.62759 | -42.33893 | 34540 ft | 492 kts | 9° |
| 2026-04-28 23:22 | -20.60548 | -42.33354 | 34696 ft | 492 kts | 9° |
| 2026-04-28 23:22 | -20.56087 | -42.32266 | 34937 ft | 491 kts | 9° |
| 2026-04-28 23:22 | -20.52742 | -42.31456 | 35026 ft | 493 kts | 9° |
| 2026-04-28 23:23 | -20.46079 | -42.29874 | 35111 ft | 493 kts | 9° |
| 2026-04-28 23:23 | -20.39405 | -42.28296 | 35108 ft | 489 kts | 9° |
| 2026-04-28 23:24 | -20.32781 | -42.26727 | 35113 ft | 486 kts | 9° |
| 2026-04-28 23:24 | -20.26171 | -42.25162 | 35119 ft | 488 kts | 9° |
| 2026-04-28 23:25 | -20.19531 | -42.23591 | 35105 ft | 490 kts | 9° |
| 2026-04-28 23:25 | -20.12864 | -42.22012 | 35109 ft | 492 kts | 10° |
| 2026-04-28 23:26 | -20.06161 | -42.20428 | 35102 ft | 494 kts | 10° |
| 2026-04-28 23:26 | -19.99472 | -42.18761 | 35096 ft | 495 kts | 11° |
| 2026-04-28 23:27 | -19.92787 | -42.17003 | 35099 ft | 495 kts | 11° |
| 2026-04-28 23:27 | -19.86108 | -42.15261 | 35087 ft | 494 kts | 11° |
| 2026-04-28 23:28 | -19.79445 | -42.13541 | 35088 ft | 492 kts | 11° |
| 2026-04-28 23:28 | -19.72785 | -42.11861 | 35090 ft | 491 kts | 10° |